sensor_id;sensor_type;location;lat;lon;timestamp;P1;durP1;ratioP1;P2;durP2;ratioP2
17854;SDS011;9053;53.358;6.382;2022-11-20T00:00:09;10.67;;;7.20;;
17854;SDS011;9053;53.358;6.382;2022-11-20T00:02:40;8.60;;;6.43;;
17854;SDS011;9053;53.358;6.382;2022-11-20T00:05:09;8.80;;;6.47;;
17854;SDS011;9053;53.358;6.382;2022-11-20T00:07:39;10.20;;;6.90;;
17854;SDS011;9053;53.358;6.382;2022-11-20T00:10:09;9.87;;;6.90;;
17854;SDS011;9053;53.358;6.382;2022-11-20T00:12:41;9.80;;;6.70;;
17854;SDS011;9053;53.358;6.382;2022-11-20T00:15:11;10.40;;;7.33;;
17854;SDS011;9053;53.358;6.382;2022-11-20T00:17:41;10.77;;;7.50;;
17854;SDS011;9053;53.358;6.382;2022-11-20T00:20:11;9.57;;;6.60;;
17854;SDS011;9053;53.358;6.382;2022-11-20T00:22:41;11.10;;;7.33;;
17854;SDS011;9053;53.358;6.382;2022-11-20T00:25:11;12.87;;;6.83;;
17854;SDS011;9053;53.358;6.382;2022-11-20T00:27:43;11.27;;;7.30;;
17854;SDS011;9053;53.358;6.382;2022-11-20T00:32:42;10.00;;;6.60;;
17854;SDS011;9053;53.358;6.382;2022-11-20T00:35:12;9.83;;;6.73;;
17854;SDS011;9053;53.358;6.382;2022-11-20T00:37:42;9.63;;;6.77;;
17854;SDS011;9053;53.358;6.382;2022-11-20T00:40:12;9.33;;;6.50;;
17854;SDS011;9053;53.358;6.382;2022-11-20T00:42:44;10.30;;;7.63;;
17854;SDS011;9053;53.358;6.382;2022-11-20T00:45:14;9.70;;;6.63;;
17854;SDS011;9053;53.358;6.382;2022-11-20T00:47:44;8.23;;;5.80;;
17854;SDS011;9053;53.358;6.382;2022-11-20T00:50:14;9.57;;;6.77;;
17854;SDS011;9053;53.358;6.382;2022-11-20T00:52:44;11.57;;;6.90;;
17854;SDS011;9053;53.358;6.382;2022-11-20T00:55:13;10.10;;;6.90;;
17854;SDS011;9053;53.358;6.382;2022-11-20T00:57:46;9.93;;;6.70;;
17854;SDS011;9053;53.358;6.382;2022-11-20T01:00:16;10.73;;;7.20;;
17854;SDS011;9053;53.358;6.382;2022-11-20T01:02:46;11.33;;;6.90;;
17854;SDS011;9053;53.358;6.382;2022-11-20T01:05:15;9.87;;;6.70;;
17854;SDS011;9053;53.358;6.382;2022-11-20T01:07:45;11.77;;;7.70;;
17854;SDS011;9053;53.358;6.382;2022-11-20T01:10:15;12.17;;;7.77;;
17854;SDS011;9053;53.358;6.382;2022-11-20T01:12:47;10.97;;;7.03;;
17854;SDS011;9053;53.358;6.382;2022-11-20T01:15:37;9.73;;;7.43;;
17854;SDS011;9053;53.358;6.382;2022-11-20T01:18:07;10.47;;;7.20;;
17854;SDS011;9053;53.358;6.382;2022-11-20T01:20:37;9.60;;;7.07;;
17854;SDS011;9053;53.358;6.382;2022-11-20T01:23:06;10.03;;;6.97;;
17854;SDS011;9053;53.358;6.382;2022-11-20T01:25:36;12.63;;;7.73;;
17854;SDS011;9053;53.358;6.382;2022-11-20T01:28:09;11.63;;;7.23;;
17854;SDS011;9053;53.358;6.382;2022-11-20T01:30:38;11.53;;;7.83;;
17854;SDS011;9053;53.358;6.382;2022-11-20T01:33:08;10.03;;;6.90;;
17854;SDS011;9053;53.358;6.382;2022-11-20T01:35:38;10.57;;;7.57;;
17854;SDS011;9053;53.358;6.382;2022-11-20T01:38:08;12.90;;;8.17;;
17854;SDS011;9053;53.358;6.382;2022-11-20T01:40:37;11.97;;;7.77;;
17854;SDS011;9053;53.358;6.382;2022-11-20T01:43:12;10.60;;;8.10;;
17854;SDS011;9053;53.358;6.382;2022-11-20T01:45:56;10.93;;;7.47;;
17854;SDS011;9053;53.358;6.382;2022-11-20T01:48:31;11.33;;;7.87;;
17854;SDS011;9053;53.358;6.382;2022-11-20T01:51:06;11.17;;;7.57;;
17854;SDS011;9053;53.358;6.382;2022-11-20T01:53:42;11.13;;;7.97;;
17854;SDS011;9053;53.358;6.382;2022-11-20T01:56:12;10.07;;;7.80;;
17854;SDS011;9053;53.358;6.382;2022-11-20T01:58:47;11.60;;;7.37;;
17854;SDS011;9053;53.358;6.382;2022-11-20T02:01:20;12.87;;;8.60;;
17854;SDS011;9053;53.358;6.382;2022-11-20T02:03:50;14.47;;;8.40;;
17854;SDS011;9053;53.358;6.382;2022-11-20T02:06:23;12.10;;;8.37;;
17854;SDS011;9053;53.358;6.382;2022-11-20T02:08:54;11.13;;;7.70;;
17854;SDS011;9053;53.358;6.382;2022-11-20T02:11:24;13.37;;;7.87;;
17854;SDS011;9053;53.358;6.382;2022-11-20T02:13:57;10.80;;;7.43;;
17854;SDS011;9053;53.358;6.382;2022-11-20T02:16:26;11.83;;;7.33;;
17854;SDS011;9053;53.358;6.382;2022-11-20T02:18:59;11.63;;;7.83;;
17854;SDS011;9053;53.358;6.382;2022-11-20T02:21:33;10.10;;;7.40;;
17854;SDS011;9053;53.358;6.382;2022-11-20T02:24:12;12.13;;;8.37;;
17854;SDS011;9053;53.358;6.382;2022-11-20T02:26:46;13.03;;;8.63;;
17854;SDS011;9053;53.358;6.382;2022-11-20T02:29:23;11.00;;;7.97;;
17854;SDS011;9053;53.358;6.382;2022-11-20T02:31:55;11.73;;;8.47;;
17854;SDS011;9053;53.358;6.382;2022-11-20T02:34:27;11.60;;;7.87;;
17854;SDS011;9053;53.358;6.382;2022-11-20T02:36:57;9.73;;;7.73;;
17854;SDS011;9053;53.358;6.382;2022-11-20T02:39:31;11.37;;;7.80;;
17854;SDS011;9053;53.358;6.382;2022-11-20T02:42:01;11.30;;;7.97;;
17854;SDS011;9053;53.358;6.382;2022-11-20T02:44:31;11.23;;;8.07;;
17854;SDS011;9053;53.358;6.382;2022-11-20T02:47:01;11.40;;;7.87;;
17854;SDS011;9053;53.358;6.382;2022-11-20T02:49:30;10.40;;;7.57;;
17854;SDS011;9053;53.358;6.382;2022-11-20T02:52:01;11.80;;;8.10;;
17854;SDS011;9053;53.358;6.382;2022-11-20T02:54:34;10.37;;;7.73;;
17854;SDS011;9053;53.358;6.382;2022-11-20T02:57:04;10.80;;;7.77;;
17854;SDS011;9053;53.358;6.382;2022-11-20T02:59:34;10.17;;;7.23;;
17854;SDS011;9053;53.358;6.382;2022-11-20T03:02:04;11.30;;;7.97;;
17854;SDS011;9053;53.358;6.382;2022-11-20T03:04:34;13.00;;;8.83;;
17854;SDS011;9053;53.358;6.382;2022-11-20T03:07:04;12.20;;;7.93;;
17854;SDS011;9053;53.358;6.382;2022-11-20T03:09:36;11.40;;;7.90;;
17854;SDS011;9053;53.358;6.382;2022-11-20T03:12:06;11.93;;;8.00;;
17854;SDS011;9053;53.358;6.382;2022-11-20T03:14:36;11.70;;;8.13;;
17854;SDS011;9053;53.358;6.382;2022-11-20T03:17:06;12.57;;;8.20;;
17854;SDS011;9053;53.358;6.382;2022-11-20T03:19:36;13.43;;;9.07;;
17854;SDS011;9053;53.358;6.382;2022-11-20T03:22:06;11.67;;;7.87;;
17854;SDS011;9053;53.358;6.382;2022-11-20T03:24:38;11.70;;;8.10;;
17854;SDS011;9053;53.358;6.382;2022-11-20T03:27:08;10.40;;;8.00;;
17854;SDS011;9053;53.358;6.382;2022-11-20T03:29:37;12.30;;;8.10;;
17854;SDS011;9053;53.358;6.382;2022-11-20T03:32:07;11.23;;;7.77;;
17854;SDS011;9053;53.358;6.382;2022-11-20T03:34:37;11.93;;;7.60;;
17854;SDS011;9053;53.358;6.382;2022-11-20T03:37:07;9.77;;;7.50;;
17854;SDS011;9053;53.358;6.382;2022-11-20T03:39:39;10.37;;;7.03;;
17854;SDS011;9053;53.358;6.382;2022-11-20T03:42:09;12.93;;;8.40;;
17854;SDS011;9053;53.358;6.382;2022-11-20T03:44:59;11.97;;;8.17;;
17854;SDS011;9053;53.358;6.382;2022-11-20T03:47:29;9.87;;;7.10;;
17854;SDS011;9053;53.358;6.382;2022-11-20T03:49:59;11.13;;;7.57;;
17854;SDS011;9053;53.358;6.382;2022-11-20T03:52:29;10.30;;;7.33;;
17854;SDS011;9053;53.358;6.382;2022-11-20T03:55:01;10.80;;;7.23;;
17854;SDS011;9053;53.358;6.382;2022-11-20T03:57:31;11.13;;;7.90;;
17854;SDS011;9053;53.358;6.382;2022-11-20T04:00:02;10.23;;;7.00;;
17854;SDS011;9053;53.358;6.382;2022-11-20T04:02:32;10.20;;;7.03;;
17854;SDS011;9053;53.358;6.382;2022-11-20T04:05:02;12.43;;;7.93;;
17854;SDS011;9053;53.358;6.382;2022-11-20T04:07:33;10.17;;;7.37;;
17854;SDS011;9053;53.358;6.382;2022-11-20T04:10:07;10.00;;;7.30;;
17854;SDS011;9053;53.358;6.382;2022-11-20T04:12:37;10.73;;;6.87;;
17854;SDS011;9053;53.358;6.382;2022-11-20T04:15:07;9.80;;;7.13;;
17854;SDS011;9053;53.358;6.382;2022-11-20T04:17:38;9.90;;;6.73;;
17854;SDS011;9053;53.358;6.382;2022-11-20T04:20:08;9.40;;;6.60;;
17854;SDS011;9053;53.358;6.382;2022-11-20T04:22:38;9.00;;;6.63;;
17854;SDS011;9053;53.358;6.382;2022-11-20T04:25:11;8.87;;;6.27;;
17854;SDS011;9053;53.358;6.382;2022-11-20T04:27:40;8.77;;;5.93;;
17854;SDS011;9053;53.358;6.382;2022-11-20T04:32:41;9.10;;;6.47;;
17854;SDS011;9053;53.358;6.382;2022-11-20T04:35:11;9.50;;;6.77;;
17854;SDS011;9053;53.358;6.382;2022-11-20T04:37:41;10.53;;;6.87;;
17854;SDS011;9053;53.358;6.382;2022-11-20T04:40:14;7.77;;;6.50;;
17854;SDS011;9053;53.358;6.382;2022-11-20T04:42:44;9.50;;;7.07;;
17854;SDS011;9053;53.358;6.382;2022-11-20T04:45:14;8.93;;;6.60;;
17854;SDS011;9053;53.358;6.382;2022-11-20T05:09:48;8.40;;;6.47;;
17854;SDS011;9053;53.358;6.382;2022-11-20T05:12:18;10.40;;;6.97;;
17854;SDS011;9053;53.358;6.382;2022-11-20T05:14:47;10.73;;;7.10;;
17854;SDS011;9053;53.358;6.382;2022-11-20T05:17:17;10.97;;;7.33;;
17854;SDS011;9053;53.358;6.382;2022-11-20T05:19:47;10.80;;;6.83;;
17854;SDS011;9053;53.358;6.382;2022-11-20T05:22:20;11.47;;;7.97;;
17854;SDS011;9053;53.358;6.382;2022-11-20T05:24:52;9.13;;;7.20;;
17854;SDS011;9053;53.358;6.382;2022-11-20T05:27:22;11.30;;;7.40;;
17854;SDS011;9053;53.358;6.382;2022-11-20T05:29:52;11.23;;;7.17;;
17854;SDS011;9053;53.358;6.382;2022-11-20T05:32:22;9.53;;;6.90;;
17854;SDS011;9053;53.358;6.382;2022-11-20T05:34:53;9.27;;;7.10;;
17854;SDS011;9053;53.358;6.382;2022-11-20T05:37:23;9.63;;;7.23;;
17854;SDS011;9053;53.358;6.382;2022-11-20T05:39:55;10.90;;;7.50;;
17854;SDS011;9053;53.358;6.382;2022-11-20T05:42:25;10.83;;;7.43;;
17854;SDS011;9053;53.358;6.382;2022-11-20T05:45:03;11.30;;;7.40;;
17854;SDS011;9053;53.358;6.382;2022-11-20T05:47:33;11.87;;;7.70;;
17854;SDS011;9053;53.358;6.382;2022-11-20T05:50:04;10.53;;;7.30;;
17854;SDS011;9053;53.358;6.382;2022-11-20T05:52:34;10.73;;;6.90;;
17854;SDS011;9053;53.358;6.382;2022-11-20T05:55:08;9.80;;;6.43;;
17854;SDS011;9053;53.358;6.382;2022-11-20T05:57:38;11.80;;;7.10;;
17854;SDS011;9053;53.358;6.382;2022-11-20T06:00:08;10.23;;;7.37;;
17854;SDS011;9053;53.358;6.382;2022-11-20T06:02:39;9.80;;;7.00;;
17854;SDS011;9053;53.358;6.382;2022-11-20T06:05:09;10.07;;;7.20;;
17854;SDS011;9053;53.358;6.382;2022-11-20T06:07:39;8.43;;;6.17;;
17854;SDS011;9053;53.358;6.382;2022-11-20T06:10:11;10.13;;;7.30;;
17854;SDS011;9053;53.358;6.382;2022-11-20T06:12:42;9.90;;;7.40;;
17854;SDS011;9053;53.358;6.382;2022-11-20T06:15:11;10.97;;;7.33;;
17854;SDS011;9053;53.358;6.382;2022-11-20T06:17:41;10.70;;;6.87;;
17854;SDS011;9053;53.358;6.382;2022-11-20T06:20:11;9.47;;;6.60;;
17854;SDS011;9053;53.358;6.382;2022-11-20T06:22:41;9.80;;;7.10;;
17854;SDS011;9053;53.358;6.382;2022-11-20T06:25:14;10.17;;;7.50;;
17854;SDS011;9053;53.358;6.382;2022-11-20T06:27:52;9.60;;;7.07;;
17854;SDS011;9053;53.358;6.382;2022-11-20T06:33:01;9.33;;;6.83;;
17854;SDS011;9053;53.358;6.382;2022-11-20T06:35:31;11.43;;;7.33;;
17854;SDS011;9053;53.358;6.382;2022-11-20T06:38:01;11.10;;;7.70;;
17854;SDS011;9053;53.358;6.382;2022-11-20T06:40:34;9.30;;;6.97;;
17854;SDS011;9053;53.358;6.382;2022-11-20T06:43:03;10.43;;;7.20;;
17854;SDS011;9053;53.358;6.382;2022-11-20T06:45:33;9.73;;;7.20;;
17854;SDS011;9053;53.358;6.382;2022-11-20T06:48:03;8.90;;;6.93;;
17854;SDS011;9053;53.358;6.382;2022-11-20T06:50:33;10.27;;;6.93;;
17854;SDS011;9053;53.358;6.382;2022-11-20T06:53:03;10.77;;;7.30;;
17854;SDS011;9053;53.358;6.382;2022-11-20T06:55:36;11.63;;;8.13;;
17854;SDS011;9053;53.358;6.382;2022-11-20T06:58:10;8.60;;;6.70;;
17854;SDS011;9053;53.358;6.382;2022-11-20T07:00:41;10.57;;;7.70;;
17854;SDS011;9053;53.358;6.382;2022-11-20T07:03:11;9.70;;;7.43;;
17854;SDS011;9053;53.358;6.382;2022-11-20T07:05:41;10.80;;;7.17;;
17854;SDS011;9053;53.358;6.382;2022-11-20T07:08:12;10.07;;;7.13;;
17854;SDS011;9053;53.358;6.382;2022-11-20T07:10:44;9.50;;;7.13;;
17854;SDS011;9053;53.358;6.382;2022-11-20T07:13:14;9.40;;;6.70;;
17854;SDS011;9053;53.358;6.382;2022-11-20T07:15:44;9.90;;;7.40;;
17854;SDS011;9053;53.358;6.382;2022-11-20T07:18:14;10.87;;;7.37;;
17854;SDS011;9053;53.358;6.382;2022-11-20T07:20:44;9.47;;;7.30;;
17854;SDS011;9053;53.358;6.382;2022-11-20T07:23:14;9.60;;;7.27;;
17854;SDS011;9053;53.358;6.382;2022-11-20T07:25:46;9.90;;;6.93;;
17854;SDS011;9053;53.358;6.382;2022-11-20T07:28:16;12.50;;;8.60;;
17854;SDS011;9053;53.358;6.382;2022-11-20T07:30:49;10.47;;;6.80;;
17854;SDS011;9053;53.358;6.382;2022-11-20T07:33:19;11.17;;;7.77;;
17854;SDS011;9053;53.358;6.382;2022-11-20T07:35:49;10.53;;;7.67;;
17854;SDS011;9053;53.358;6.382;2022-11-20T07:38:19;10.70;;;7.37;;
17854;SDS011;9053;53.358;6.382;2022-11-20T07:40:55;11.77;;;7.07;;
17854;SDS011;9053;53.358;6.382;2022-11-20T07:43:28;9.67;;;6.83;;
17854;SDS011;9053;53.358;6.382;2022-11-20T07:46:03;11.77;;;7.73;;
17854;SDS011;9053;53.358;6.382;2022-11-20T07:48:33;9.67;;;7.77;;
17854;SDS011;9053;53.358;6.382;2022-11-20T07:51:03;9.50;;;6.90;;
17854;SDS011;9053;53.358;6.382;2022-11-20T07:53:33;10.17;;;7.33;;
17854;SDS011;9053;53.358;6.382;2022-11-20T07:56:06;10.17;;;6.93;;
17854;SDS011;9053;53.358;6.382;2022-11-20T07:58:36;11.07;;;7.83;;
17854;SDS011;9053;53.358;6.382;2022-11-20T08:01:06;11.17;;;8.93;;
17854;SDS011;9053;53.358;6.382;2022-11-20T08:03:37;11.90;;;8.27;;
17854;SDS011;9053;53.358;6.382;2022-11-20T08:06:07;11.80;;;7.40;;
17854;SDS011;9053;53.358;6.382;2022-11-20T08:08:37;10.40;;;7.80;;
17854;SDS011;9053;53.358;6.382;2022-11-20T08:11:11;10.73;;;7.83;;
17854;SDS011;9053;53.358;6.382;2022-11-20T08:13:53;11.13;;;7.20;;
17854;SDS011;9053;53.358;6.382;2022-11-20T08:16:35;10.70;;;7.90;;
17854;SDS011;9053;53.358;6.382;2022-11-20T08:19:05;10.90;;;8.00;;
17854;SDS011;9053;53.358;6.382;2022-11-20T08:21:34;10.50;;;7.97;;
17854;SDS011;9053;53.358;6.382;2022-11-20T08:24:05;11.30;;;7.53;;
17854;SDS011;9053;53.358;6.382;2022-11-20T08:26:38;10.93;;;7.47;;
17854;SDS011;9053;53.358;6.382;2022-11-20T08:29:09;11.53;;;7.60;;
17854;SDS011;9053;53.358;6.382;2022-11-20T08:31:38;10.47;;;7.77;;
17854;SDS011;9053;53.358;6.382;2022-11-20T08:34:08;14.53;;;11.23;;
17854;SDS011;9053;53.358;6.382;2022-11-20T08:36:44;9.27;;;7.10;;
17854;SDS011;9053;53.358;6.382;2022-11-20T08:39:14;10.53;;;7.57;;
17854;SDS011;9053;53.358;6.382;2022-11-20T08:41:47;11.07;;;7.37;;
17854;SDS011;9053;53.358;6.382;2022-11-20T08:44:16;11.47;;;8.00;;
17854;SDS011;9053;53.358;6.382;2022-11-20T08:46:46;11.80;;;7.53;;
17854;SDS011;9053;53.358;6.382;2022-11-20T08:49:16;10.60;;;8.00;;
17854;SDS011;9053;53.358;6.382;2022-11-20T08:51:46;13.57;;;7.50;;
17854;SDS011;9053;53.358;6.382;2022-11-20T08:54:18;10.77;;;7.87;;
17854;SDS011;9053;53.358;6.382;2022-11-20T08:56:51;11.00;;;8.00;;
17854;SDS011;9053;53.358;6.382;2022-11-20T08:59:21;10.07;;;7.40;;
17854;SDS011;9053;53.358;6.382;2022-11-20T09:02:11;11.40;;;8.00;;
17854;SDS011;9053;53.358;6.382;2022-11-20T09:04:41;9.80;;;7.23;;
17854;SDS011;9053;53.358;6.382;2022-11-20T09:07:11;11.13;;;8.10;;
17854;SDS011;9053;53.358;6.382;2022-11-20T09:09:41;9.50;;;6.87;;
17854;SDS011;9053;53.358;6.382;2022-11-20T09:12:14;10.50;;;7.77;;
17854;SDS011;9053;53.358;6.382;2022-11-20T09:14:44;9.90;;;7.20;;
17854;SDS011;9053;53.358;6.382;2022-11-20T09:17:20;12.23;;;8.33;;
17854;SDS011;9053;53.358;6.382;2022-11-20T09:19:49;12.43;;;7.87;;
17854;SDS011;9053;53.358;6.382;2022-11-20T09:22:19;13.73;;;8.30;;
17854;SDS011;9053;53.358;6.382;2022-11-20T09:24:49;11.97;;;8.60;;
17854;SDS011;9053;53.358;6.382;2022-11-20T09:27:21;11.23;;;8.47;;
17854;SDS011;9053;53.358;6.382;2022-11-20T09:29:51;11.70;;;8.37;;
17854;SDS011;9053;53.358;6.382;2022-11-20T09:32:21;11.40;;;8.43;;
17854;SDS011;9053;53.358;6.382;2022-11-20T09:34:50;9.93;;;7.47;;
17854;SDS011;9053;53.358;6.382;2022-11-20T09:37:20;11.50;;;8.30;;
17854;SDS011;9053;53.358;6.382;2022-11-20T09:39:50;14.83;;;13.33;;
17854;SDS011;9053;53.358;6.382;2022-11-20T09:42:26;10.20;;;7.80;;
17854;SDS011;9053;53.358;6.382;2022-11-20T09:45:08;11.57;;;8.20;;
17854;SDS011;9053;53.358;6.382;2022-11-20T09:47:49;13.03;;;8.67;;
17854;SDS011;9053;53.358;6.382;2022-11-20T09:50:32;11.77;;;8.43;;
17854;SDS011;9053;53.358;6.382;2022-11-20T09:53:11;10.77;;;7.27;;
17854;SDS011;9053;53.358;6.382;2022-11-20T09:55:42;9.80;;;7.27;;
17854;SDS011;9053;53.358;6.382;2022-11-20T09:58:17;10.27;;;7.30;;
17854;SDS011;9053;53.358;6.382;2022-11-20T10:00:56;11.20;;;7.70;;
17854;SDS011;9053;53.358;6.382;2022-11-20T10:03:36;10.03;;;7.37;;
17854;SDS011;9053;53.358;6.382;2022-11-20T10:06:12;9.37;;;7.33;;
17854;SDS011;9053;53.358;6.382;2022-11-20T10:08:48;9.87;;;7.23;;
17854;SDS011;9053;53.358;6.382;2022-11-20T10:11:26;11.53;;;7.73;;
17854;SDS011;9053;53.358;6.382;2022-11-20T10:14:10;12.73;;;8.00;;
17854;SDS011;9053;53.358;6.382;2022-11-20T10:16:51;9.57;;;7.37;;
17854;SDS011;9053;53.358;6.382;2022-11-20T10:19:47;11.10;;;7.37;;
17854;SDS011;9053;53.358;6.382;2022-11-20T10:22:37;11.43;;;8.40;;
17854;SDS011;9053;53.358;6.382;2022-11-20T10:25:13;10.17;;;7.37;;
17854;SDS011;9053;53.358;6.382;2022-11-20T10:27:51;11.43;;;8.10;;
17854;SDS011;9053;53.358;6.382;2022-11-20T10:30:37;9.73;;;7.40;;
17854;SDS011;9053;53.358;6.382;2022-11-20T10:33:13;10.03;;;7.70;;
17854;SDS011;9053;53.358;6.382;2022-11-20T10:35:49;11.17;;;7.27;;
17854;SDS011;9053;53.358;6.382;2022-11-20T10:38:23;12.10;;;8.40;;
17854;SDS011;9053;53.358;6.382;2022-11-20T10:40:57;10.67;;;8.10;;
17854;SDS011;9053;53.358;6.382;2022-11-20T10:43:42;9.80;;;7.43;;
17854;SDS011;9053;53.358;6.382;2022-11-20T10:46:17;10.57;;;8.10;;
17854;SDS011;9053;53.358;6.382;2022-11-20T10:48:49;11.63;;;8.40;;
17854;SDS011;9053;53.358;6.382;2022-11-20T10:51:27;10.27;;;6.93;;
17854;SDS011;9053;53.358;6.382;2022-11-20T10:54:08;9.87;;;7.83;;
17854;SDS011;9053;53.358;6.382;2022-11-20T10:56:47;9.87;;;7.20;;
17854;SDS011;9053;53.358;6.382;2022-11-20T10:59:26;11.40;;;8.57;;
17854;SDS011;9053;53.358;6.382;2022-11-20T11:05:04;10.47;;;7.93;;
17854;SDS011;9053;53.358;6.382;2022-11-20T11:07:42;10.30;;;7.43;;
17854;SDS011;9053;53.358;6.382;2022-11-20T11:10:15;10.80;;;7.90;;
17854;SDS011;9053;53.358;6.382;2022-11-20T11:12:47;11.07;;;8.13;;
17854;SDS011;9053;53.358;6.382;2022-11-20T11:15:24;10.97;;;7.73;;
17854;SDS011;9053;53.358;6.382;2022-11-20T11:17:59;11.53;;;7.83;;
17854;SDS011;9053;53.358;6.382;2022-11-20T11:20:28;10.50;;;7.37;;
17854;SDS011;9053;53.358;6.382;2022-11-20T11:22:59;9.33;;;7.03;;
17854;SDS011;9053;53.358;6.382;2022-11-20T11:25:29;10.40;;;7.80;;
17854;SDS011;9053;53.358;6.382;2022-11-20T11:28:02;11.17;;;7.93;;
17854;SDS011;9053;53.358;6.382;2022-11-20T11:30:40;12.03;;;8.20;;
17854;SDS011;9053;53.358;6.382;2022-11-20T11:33:18;11.00;;;8.10;;
17854;SDS011;9053;53.358;6.382;2022-11-20T11:35:49;9.37;;;7.40;;
17854;SDS011;9053;53.358;6.382;2022-11-20T11:38:27;9.40;;;7.50;;
17854;SDS011;9053;53.358;6.382;2022-11-20T11:40:59;10.10;;;7.40;;
17854;SDS011;9053;53.358;6.382;2022-11-20T11:43:31;10.23;;;7.37;;
17854;SDS011;9053;53.358;6.382;2022-11-20T11:46:23;8.87;;;6.90;;
17854;SDS011;9053;53.358;6.382;2022-11-20T11:49:00;10.70;;;7.13;;
17854;SDS011;9053;53.358;6.382;2022-11-20T11:51:33;9.50;;;7.10;;
17854;SDS011;9053;53.358;6.382;2022-11-20T11:54:10;10.00;;;7.47;;
17854;SDS011;9053;53.358;6.382;2022-11-20T11:56:46;11.37;;;7.80;;
17854;SDS011;9053;53.358;6.382;2022-11-20T11:59:17;9.63;;;7.13;;
17854;SDS011;9053;53.358;6.382;2022-11-20T12:01:57;10.10;;;7.50;;
17854;SDS011;9053;53.358;6.382;2022-11-20T12:04:40;8.87;;;6.90;;
17854;SDS011;9053;53.358;6.382;2022-11-20T12:07:15;9.97;;;7.30;;
17854;SDS011;9053;53.358;6.382;2022-11-20T12:10:14;10.70;;;7.17;;
17854;SDS011;9053;53.358;6.382;2022-11-20T12:12:50;8.43;;;6.70;;
17854;SDS011;9053;53.358;6.382;2022-11-20T12:15:29;9.83;;;7.63;;
17854;SDS011;9053;53.358;6.382;2022-11-20T12:18:00;10.00;;;7.03;;
17854;SDS011;9053;53.358;6.382;2022-11-20T12:20:34;8.50;;;7.10;;
17854;SDS011;9053;53.358;6.382;2022-11-20T12:23:14;10.57;;;7.60;;
17854;SDS011;9053;53.358;6.382;2022-11-20T12:25:52;12.23;;;8.47;;
17854;SDS011;9053;53.358;6.382;2022-11-20T12:28:38;12.53;;;8.30;;
17854;SDS011;9053;53.358;6.382;2022-11-20T12:31:21;9.70;;;7.67;;
17854;SDS011;9053;53.358;6.382;2022-11-20T12:34:03;13.40;;;8.77;;
17854;SDS011;9053;53.358;6.382;2022-11-20T12:36:50;9.87;;;7.37;;
17854;SDS011;9053;53.358;6.382;2022-11-20T12:39:32;10.43;;;7.30;;
17854;SDS011;9053;53.358;6.382;2022-11-20T12:42:11;9.50;;;7.17;;
17854;SDS011;9053;53.358;6.382;2022-11-20T12:45:19;9.33;;;6.43;;
17854;SDS011;9053;53.358;6.382;2022-11-20T12:51:00;8.07;;;6.00;;
17854;SDS011;9053;53.358;6.382;2022-11-20T12:53:48;8.20;;;5.83;;
17854;SDS011;9053;53.358;6.382;2022-11-20T12:56:35;8.37;;;6.57;;
17854;SDS011;9053;53.358;6.382;2022-11-20T12:59:20;7.80;;;6.13;;
17854;SDS011;9053;53.358;6.382;2022-11-20T13:02:03;6.90;;;5.90;;
17854;SDS011;9053;53.358;6.382;2022-11-20T13:04:54;7.57;;;5.87;;
17854;SDS011;9053;53.358;6.382;2022-11-20T13:07:34;6.33;;;5.10;;
17854;SDS011;9053;53.358;6.382;2022-11-20T13:10:10;7.63;;;5.57;;
17854;SDS011;9053;53.358;6.382;2022-11-20T13:12:49;8.33;;;5.80;;
17854;SDS011;9053;53.358;6.382;2022-11-20T13:15:31;6.50;;;5.50;;
17854;SDS011;9053;53.358;6.382;2022-11-20T13:18:09;8.07;;;5.87;;
17854;SDS011;9053;53.358;6.382;2022-11-20T13:20:41;7.63;;;5.97;;
17854;SDS011;9053;53.358;6.382;2022-11-20T13:23:22;7.47;;;5.13;;
17854;SDS011;9053;53.358;6.382;2022-11-20T13:26:18;6.33;;;4.90;;
17854;SDS011;9053;53.358;6.382;2022-11-20T13:28:59;7.47;;;5.23;;
17854;SDS011;9053;53.358;6.382;2022-11-20T13:31:38;6.90;;;5.00;;
17854;SDS011;9053;53.358;6.382;2022-11-20T13:34:13;5.83;;;5.07;;
17854;SDS011;9053;53.358;6.382;2022-11-20T13:36:53;6.13;;;5.10;;
17854;SDS011;9053;53.358;6.382;2022-11-20T13:39:24;5.77;;;4.60;;
17854;SDS011;9053;53.358;6.382;2022-11-20T13:41:57;5.63;;;4.50;;
17854;SDS011;9053;53.358;6.382;2022-11-20T13:44:30;6.33;;;4.57;;
17854;SDS011;9053;53.358;6.382;2022-11-20T13:47:17;5.73;;;4.37;;
17854;SDS011;9053;53.358;6.382;2022-11-20T13:49:50;6.33;;;4.53;;
17854;SDS011;9053;53.358;6.382;2022-11-20T13:52:31;5.63;;;4.47;;
17854;SDS011;9053;53.358;6.382;2022-11-20T13:55:12;5.57;;;4.53;;
17854;SDS011;9053;53.358;6.382;2022-11-20T14:00:55;5.83;;;4.53;;
17854;SDS011;9053;53.358;6.382;2022-11-20T14:03:29;5.83;;;4.20;;
17854;SDS011;9053;53.358;6.382;2022-11-20T14:06:25;5.73;;;5.00;;
17854;SDS011;9053;53.358;6.382;2022-11-20T14:08:58;6.00;;;4.77;;
17854;SDS011;9053;53.358;6.382;2022-11-20T14:11:30;7.03;;;4.80;;
17854;SDS011;9053;53.358;6.382;2022-11-20T14:14:01;7.40;;;4.67;;
17854;SDS011;9053;53.358;6.382;2022-11-20T14:16:39;12.10;;;7.80;;
17854;SDS011;9053;53.358;6.382;2022-11-20T14:22:08;10.30;;;7.00;;
17854;SDS011;9053;53.358;6.382;2022-11-20T14:24:39;7.07;;;5.60;;
17854;SDS011;9053;53.358;6.382;2022-11-20T14:27:11;6.10;;;4.90;;
17854;SDS011;9053;53.358;6.382;2022-11-20T14:29:43;6.43;;;4.80;;
17854;SDS011;9053;53.358;6.382;2022-11-20T14:32:18;7.47;;;4.97;;
17854;SDS011;9053;53.358;6.382;2022-11-20T14:34:51;5.60;;;4.70;;
17854;SDS011;9053;53.358;6.382;2022-11-20T14:37:21;6.50;;;5.27;;
17854;SDS011;9053;53.358;6.382;2022-11-20T14:39:54;6.13;;;4.70;;
17854;SDS011;9053;53.358;6.382;2022-11-20T14:42:26;7.23;;;5.07;;
17854;SDS011;9053;53.358;6.382;2022-11-20T14:44:58;7.43;;;4.67;;
17854;SDS011;9053;53.358;6.382;2022-11-20T14:47:31;5.93;;;4.80;;
17854;SDS011;9053;53.358;6.382;2022-11-20T14:50:01;5.77;;;4.70;;
17854;SDS011;9053;53.358;6.382;2022-11-20T14:52:35;6.30;;;4.60;;
17854;SDS011;9053;53.358;6.382;2022-11-20T14:55:05;8.13;;;4.93;;
17854;SDS011;9053;53.358;6.382;2022-11-20T14:57:37;6.20;;;4.60;;
17854;SDS011;9053;53.358;6.382;2022-11-20T15:00:17;6.40;;;4.83;;
17854;SDS011;9053;53.358;6.382;2022-11-20T15:02:52;7.07;;;5.40;;
17854;SDS011;9053;53.358;6.382;2022-11-20T15:05:23;6.83;;;5.27;;
17854;SDS011;9053;53.358;6.382;2022-11-20T15:08:04;7.90;;;5.63;;
17854;SDS011;9053;53.358;6.382;2022-11-20T15:10:36;6.20;;;5.00;;
17854;SDS011;9053;53.358;6.382;2022-11-20T15:13:10;7.70;;;5.10;;
17854;SDS011;9053;53.358;6.382;2022-11-20T15:15:44;6.60;;;5.47;;
17854;SDS011;9053;53.358;6.382;2022-11-20T15:18:25;7.97;;;5.60;;
17854;SDS011;9053;53.358;6.382;2022-11-20T15:20:57;7.83;;;5.47;;
17854;SDS011;9053;53.358;6.382;2022-11-20T15:23:30;8.53;;;5.03;;
17854;SDS011;9053;53.358;6.382;2022-11-20T15:26:00;5.97;;;5.27;;
17854;SDS011;9053;53.358;6.382;2022-11-20T15:28:31;6.47;;;5.27;;
17854;SDS011;9053;53.358;6.382;2022-11-20T15:31:03;5.90;;;4.53;;
17854;SDS011;9053;53.358;6.382;2022-11-20T15:33:35;7.07;;;5.03;;
17854;SDS011;9053;53.358;6.382;2022-11-20T15:36:05;6.80;;;5.20;;
17854;SDS011;9053;53.358;6.382;2022-11-20T15:38:35;7.00;;;5.30;;
17854;SDS011;9053;53.358;6.382;2022-11-20T15:41:07;6.60;;;5.03;;
17854;SDS011;9053;53.358;6.382;2022-11-20T15:43:37;7.37;;;4.70;;
17854;SDS011;9053;53.358;6.382;2022-11-20T15:46:09;6.33;;;5.13;;
17854;SDS011;9053;53.358;6.382;2022-11-20T15:48:45;7.60;;;5.33;;
17854;SDS011;9053;53.358;6.382;2022-11-20T15:51:21;7.27;;;5.80;;
17854;SDS011;9053;53.358;6.382;2022-11-20T15:53:55;6.60;;;5.17;;
17854;SDS011;9053;53.358;6.382;2022-11-20T15:56:26;7.93;;;5.80;;
17854;SDS011;9053;53.358;6.382;2022-11-20T15:58:56;7.67;;;6.10;;
17854;SDS011;9053;53.358;6.382;2022-11-20T16:01:26;6.10;;;4.97;;
17854;SDS011;9053;53.358;6.382;2022-11-20T16:03:58;6.47;;;5.13;;
17854;SDS011;9053;53.358;6.382;2022-11-20T16:06:28;6.63;;;5.27;;
17854;SDS011;9053;53.358;6.382;2022-11-20T16:08:58;7.20;;;5.40;;
17854;SDS011;9053;53.358;6.382;2022-11-20T16:11:28;8.23;;;6.07;;